sensor_id;sensor_type;location;lat;lon;timestamp;P1;durP1;ratioP1;P2;durP2;ratioP2
25279;SDS011;13225;47.804;12.116;2023-06-10T00:00:23;11.82;;;8.75;;
25279;SDS011;13225;47.804;12.116;2023-06-10T00:02:49;11.95;;;8.45;;
25279;SDS011;13225;47.804;12.116;2023-06-10T00:05:15;10.68;;;7.97;;
25279;SDS011;13225;47.804;12.116;2023-06-10T00:07:41;10.70;;;8.57;;
25279;SDS011;13225;47.804;12.116;2023-06-10T00:10:07;11.23;;;8.65;;
25279;SDS011;13225;47.804;12.116;2023-06-10T00:12:33;13.57;;;9.15;;
25279;SDS011;13225;47.804;12.116;2023-06-10T00:15:05;11.27;;;8.68;;
25279;SDS011;13225;47.804;12.116;2023-06-10T00:17:31;12.70;;;9.30;;
25279;SDS011;13225;47.804;12.116;2023-06-10T00:19:57;13.88;;;9.00;;
25279;SDS011;13225;47.804;12.116;2023-06-10T00:22:23;13.38;;;8.82;;
25279;SDS011;13225;47.804;12.116;2023-06-10T00:24:54;11.60;;;9.07;;
25279;SDS011;13225;47.804;12.116;2023-06-10T00:27:21;14.85;;;9.40;;
25279;SDS011;13225;47.804;12.116;2023-06-10T00:29:47;11.02;;;8.88;;
25279;SDS011;13225;47.804;12.116;2023-06-10T00:32:13;12.00;;;9.30;;
25279;SDS011;13225;47.804;12.116;2023-06-10T00:34:38;11.68;;;8.95;;
25279;SDS011;13225;47.804;12.116;2023-06-10T00:37:04;11.25;;;9.00;;
25279;SDS011;13225;47.804;12.116;2023-06-10T00:39:30;12.15;;;9.68;;
25279;SDS011;13225;47.804;12.116;2023-06-10T00:41:55;12.98;;;9.00;;
25279;SDS011;13225;47.804;12.116;2023-06-10T00:44:21;14.63;;;9.80;;
25279;SDS011;13225;47.804;12.116;2023-06-10T00:46:47;13.82;;;9.35;;
25279;SDS011;13225;47.804;12.116;2023-06-10T00:49:14;11.82;;;9.90;;
25279;SDS011;13225;47.804;12.116;2023-06-10T00:51:41;15.35;;;10.25;;
25279;SDS011;13225;47.804;12.116;2023-06-10T00:54:07;12.43;;;10.07;;
25279;SDS011;13225;47.804;12.116;2023-06-10T00:56:33;12.43;;;9.95;;
25279;SDS011;13225;47.804;12.116;2023-06-10T00:59:00;13.93;;;10.40;;
25279;SDS011;13225;47.804;12.116;2023-06-10T01:01:25;12.82;;;9.77;;
25279;SDS011;13225;47.804;12.116;2023-06-10T01:03:51;14.70;;;10.05;;
25279;SDS011;13225;47.804;12.116;2023-06-10T01:06:26;14.05;;;9.88;;
25279;SDS011;13225;47.804;12.116;2023-06-10T01:09:21;15.02;;;9.85;;
25279;SDS011;13225;47.804;12.116;2023-06-10T01:11:58;13.45;;;10.25;;
25279;SDS011;13225;47.804;12.116;2023-06-10T01:14:33;14.55;;;9.80;;
25279;SDS011;13225;47.804;12.116;2023-06-10T01:17:00;14.05;;;10.77;;
25279;SDS011;13225;47.804;12.116;2023-06-10T01:19:28;13.15;;;9.82;;
25279;SDS011;13225;47.804;12.116;2023-06-10T01:21:56;13.88;;;10.35;;
25279;SDS011;13225;47.804;12.116;2023-06-10T01:24:26;11.23;;;9.10;;
25279;SDS011;13225;47.804;12.116;2023-06-10T01:26:52;13.00;;;9.82;;
25279;SDS011;13225;47.804;12.116;2023-06-10T01:29:22;14.45;;;9.98;;
25279;SDS011;13225;47.804;12.116;2023-06-10T01:34:58;13.10;;;9.93;;
25279;SDS011;13225;47.804;12.116;2023-06-10T01:37:26;14.73;;;10.43;;
25279;SDS011;13225;47.804;12.116;2023-06-10T01:39:54;14.90;;;10.95;;
25279;SDS011;13225;47.804;12.116;2023-06-10T01:42:22;12.10;;;9.18;;
25279;SDS011;13225;47.804;12.116;2023-06-10T01:44:48;12.65;;;10.20;;
25279;SDS011;13225;47.804;12.116;2023-06-10T01:47:13;11.88;;;9.55;;
25279;SDS011;13225;47.804;12.116;2023-06-10T01:49:39;14.82;;;10.70;;
25279;SDS011;13225;47.804;12.116;2023-06-10T01:52:05;14.65;;;9.88;;
25279;SDS011;13225;47.804;12.116;2023-06-10T01:54:31;12.45;;;9.77;;
25279;SDS011;13225;47.804;12.116;2023-06-10T01:56:56;13.30;;;10.15;;
25279;SDS011;13225;47.804;12.116;2023-06-10T01:59:22;16.25;;;10.55;;
25279;SDS011;13225;47.804;12.116;2023-06-10T02:01:48;13.07;;;10.02;;
25279;SDS011;13225;47.804;12.116;2023-06-10T02:04:13;13.55;;;10.57;;
25279;SDS011;13225;47.804;12.116;2023-06-10T02:06:39;15.10;;;10.93;;
25279;SDS011;13225;47.804;12.116;2023-06-10T02:09:04;15.30;;;10.70;;
25279;SDS011;13225;47.804;12.116;2023-06-10T02:11:30;12.57;;;9.93;;
25279;SDS011;13225;47.804;12.116;2023-06-10T02:13:56;12.00;;;9.57;;
25279;SDS011;13225;47.804;12.116;2023-06-10T02:16:21;12.55;;;9.55;;
25279;SDS011;13225;47.804;12.116;2023-06-10T02:18:47;12.98;;;9.98;;
25279;SDS011;13225;47.804;12.116;2023-06-10T02:21:13;15.20;;;10.13;;
25279;SDS011;13225;47.804;12.116;2023-06-10T02:23:39;14.88;;;10.20;;
25279;SDS011;13225;47.804;12.116;2023-06-10T02:26:05;10.68;;;8.95;;
25279;SDS011;13225;47.804;12.116;2023-06-10T02:28:30;12.25;;;9.52;;
25279;SDS011;13225;47.804;12.116;2023-06-10T02:30:56;14.05;;;10.27;;
25279;SDS011;13225;47.804;12.116;2023-06-10T02:33:22;14.45;;;9.68;;
25279;SDS011;13225;47.804;12.116;2023-06-10T02:35:49;12.52;;;9.85;;
25279;SDS011;13225;47.804;12.116;2023-06-10T02:38:14;15.10;;;9.77;;
25279;SDS011;13225;47.804;12.116;2023-06-10T02:40:40;13.45;;;10.48;;
25279;SDS011;13225;47.804;12.116;2023-06-10T02:43:06;13.50;;;10.35;;
25279;SDS011;13225;47.804;12.116;2023-06-10T02:45:31;11.70;;;9.05;;
25279;SDS011;13225;47.804;12.116;2023-06-10T02:47:57;11.60;;;9.25;;
25279;SDS011;13225;47.804;12.116;2023-06-10T02:50:22;12.57;;;9.65;;
25279;SDS011;13225;47.804;12.116;2023-06-10T02:52:48;11.02;;;9.27;;
25279;SDS011;13225;47.804;12.116;2023-06-10T02:55:14;11.27;;;8.75;;
25279;SDS011;13225;47.804;12.116;2023-06-10T02:57:40;13.88;;;9.63;;
25279;SDS011;13225;47.804;12.116;2023-06-10T03:00:06;12.35;;;9.02;;
25279;SDS011;13225;47.804;12.116;2023-06-10T03:02:36;12.43;;;9.27;;
25279;SDS011;13225;47.804;12.116;2023-06-10T03:05:04;11.88;;;8.73;;
25279;SDS011;13225;47.804;12.116;2023-06-10T03:07:30;13.13;;;8.80;;
25279;SDS011;13225;47.804;12.116;2023-06-10T03:09:57;10.23;;;8.50;;
25279;SDS011;13225;47.804;12.116;2023-06-10T03:12:22;12.15;;;8.25;;
25279;SDS011;13225;47.804;12.116;2023-06-10T03:14:48;12.00;;;8.77;;
25279;SDS011;13225;47.804;12.116;2023-06-10T03:17:13;12.00;;;8.90;;
25279;SDS011;13225;47.804;12.116;2023-06-10T03:19:39;11.32;;;8.77;;
25279;SDS011;13225;47.804;12.116;2023-06-10T03:22:11;10.95;;;8.85;;
25279;SDS011;13225;47.804;12.116;2023-06-10T03:24:38;12.05;;;9.05;;
25279;SDS011;13225;47.804;12.116;2023-06-10T03:27:08;13.45;;;9.30;;
25279;SDS011;13225;47.804;12.116;2023-06-10T03:29:34;12.40;;;9.13;;
25279;SDS011;13225;47.804;12.116;2023-06-10T03:32:00;12.40;;;9.07;;
25279;SDS011;13225;47.804;12.116;2023-06-10T03:34:26;10.70;;;8.80;;
25279;SDS011;13225;47.804;12.116;2023-06-10T03:36:52;12.95;;;8.50;;
25279;SDS011;13225;47.804;12.116;2023-06-10T03:39:17;16.35;;;9.60;;
25279;SDS011;13225;47.804;12.116;2023-06-10T03:41:43;11.35;;;8.85;;
25279;SDS011;13225;47.804;12.116;2023-06-10T03:44:09;13.18;;;9.35;;
25279;SDS011;13225;47.804;12.116;2023-06-10T03:46:34;11.13;;;9.20;;
25279;SDS011;13225;47.804;12.116;2023-06-10T03:49:00;10.82;;;9.32;;
25279;SDS011;13225;47.804;12.116;2023-06-10T03:51:26;11.38;;;8.60;;
25279;SDS011;13225;47.804;12.116;2023-06-10T03:53:52;11.25;;;8.57;;
25279;SDS011;13225;47.804;12.116;2023-06-10T03:56:18;10.60;;;8.23;;
25279;SDS011;13225;47.804;12.116;2023-06-10T03:58:43;11.68;;;9.55;;
25279;SDS011;13225;47.804;12.116;2023-06-10T04:01:09;10.65;;;8.23;;
25279;SDS011;13225;47.804;12.116;2023-06-10T04:03:35;10.18;;;7.45;;
25279;SDS011;13225;47.804;12.116;2023-06-10T04:06:01;8.75;;;7.57;;
25279;SDS011;13225;47.804;12.116;2023-06-10T04:08:27;9.90;;;7.68;;
25279;SDS011;13225;47.804;12.116;2023-06-10T04:10:53;9.52;;;7.32;;
25279;SDS011;13225;47.804;12.116;2023-06-10T04:13:19;10.02;;;7.13;;
25279;SDS011;13225;47.804;12.116;2023-06-10T04:15:44;9.35;;;7.28;;
25279;SDS011;13225;47.804;12.116;2023-06-10T04:18:10;10.05;;;7.00;;
25279;SDS011;13225;47.804;12.116;2023-06-10T04:20:36;9.82;;;7.20;;
25279;SDS011;13225;47.804;12.116;2023-06-10T04:23:01;8.10;;;6.43;;
25279;SDS011;13225;47.804;12.116;2023-06-10T04:25:27;7.18;;;6.30;;
25279;SDS011;13225;47.804;12.116;2023-06-10T04:27:53;8.27;;;6.10;;
25279;SDS011;13225;47.804;12.116;2023-06-10T04:30:19;8.52;;;6.10;;
25279;SDS011;13225;47.804;12.116;2023-06-10T04:32:45;7.70;;;5.60;;
25279;SDS011;13225;47.804;12.116;2023-06-10T04:35:12;6.78;;;5.25;;
25279;SDS011;13225;47.804;12.116;2023-06-10T04:37:39;6.32;;;5.72;;
25279;SDS011;13225;47.804;12.116;2023-06-10T04:40:06;6.53;;;5.70;;
25279;SDS011;13225;47.804;12.116;2023-06-10T04:42:32;8.60;;;5.70;;
25279;SDS011;13225;47.804;12.116;2023-06-10T04:44:57;7.95;;;5.40;;
25279;SDS011;13225;47.804;12.116;2023-06-10T04:47:23;6.65;;;5.20;;
25279;SDS011;13225;47.804;12.116;2023-06-10T04:49:49;7.95;;;5.78;;
25279;SDS011;13225;47.804;12.116;2023-06-10T04:52:14;9.02;;;5.50;;
25279;SDS011;13225;47.804;12.116;2023-06-10T04:54:40;6.22;;;5.53;;
25279;SDS011;13225;47.804;12.116;2023-06-10T04:57:06;5.50;;;4.93;;
25279;SDS011;13225;47.804;12.116;2023-06-10T04:59:32;5.63;;;5.03;;
25279;SDS011;13225;47.804;12.116;2023-06-10T05:02:02;5.97;;;5.00;;
25279;SDS011;13225;47.804;12.116;2023-06-10T05:04:28;6.10;;;4.60;;
25279;SDS011;13225;47.804;12.116;2023-06-10T05:06:54;5.35;;;4.85;;
25279;SDS011;13225;47.804;12.116;2023-06-10T05:09:20;5.75;;;4.97;;
25279;SDS011;13225;47.804;12.116;2023-06-10T05:11:46;6.32;;;4.70;;
25279;SDS011;13225;47.804;12.116;2023-06-10T05:14:11;6.35;;;4.88;;
25279;SDS011;13225;47.804;12.116;2023-06-10T05:16:37;6.50;;;4.88;;
25279;SDS011;13225;47.804;12.116;2023-06-10T05:19:03;5.25;;;4.63;;
25279;SDS011;13225;47.804;12.116;2023-06-10T05:21:29;5.32;;;4.82;;
25279;SDS011;13225;47.804;12.116;2023-06-10T05:23:55;6.55;;;5.15;;
25279;SDS011;13225;47.804;12.116;2023-06-10T05:26:20;7.47;;;5.00;;
25279;SDS011;13225;47.804;12.116;2023-06-10T05:28:46;6.95;;;5.40;;
25279;SDS011;13225;47.804;12.116;2023-06-10T05:31:12;5.85;;;5.25;;
25279;SDS011;13225;47.804;12.116;2023-06-10T05:33:38;6.13;;;5.35;;
25279;SDS011;13225;47.804;12.116;2023-06-10T05:36:04;10.50;;;6.22;;
25279;SDS011;13225;47.804;12.116;2023-06-10T05:38:30;9.23;;;6.20;;
25279;SDS011;13225;47.804;12.116;2023-06-10T05:40:56;7.57;;;6.45;;
25279;SDS011;13225;47.804;12.116;2023-06-10T05:43:22;7.50;;;6.10;;
25279;SDS011;13225;47.804;12.116;2023-06-10T05:45:47;8.70;;;6.45;;
25279;SDS011;13225;47.804;12.116;2023-06-10T05:48:13;10.68;;;7.60;;
25279;SDS011;13225;47.804;12.116;2023-06-10T05:50:38;9.18;;;7.80;;
25279;SDS011;13225;47.804;12.116;2023-06-10T05:53:07;10.02;;;7.60;;
25279;SDS011;13225;47.804;12.116;2023-06-10T05:55:39;8.80;;;7.32;;
25279;SDS011;13225;47.804;12.116;2023-06-10T05:58:08;8.30;;;7.45;;
25279;SDS011;13225;47.804;12.116;2023-06-10T06:00:34;11.63;;;8.00;;
25279;SDS011;13225;47.804;12.116;2023-06-10T06:02:59;8.75;;;7.80;;
25279;SDS011;13225;47.804;12.116;2023-06-10T06:05:25;10.52;;;7.72;;
25279;SDS011;13225;47.804;12.116;2023-06-10T06:07:50;8.85;;;6.95;;
25279;SDS011;13225;47.804;12.116;2023-06-10T06:10:17;10.70;;;6.80;;
25279;SDS011;13225;47.804;12.116;2023-06-10T06:12:43;10.63;;;7.40;;
25279;SDS011;13225;47.804;12.116;2023-06-10T06:15:09;10.32;;;7.70;;
25279;SDS011;13225;47.804;12.116;2023-06-10T06:17:35;10.10;;;7.35;;
25279;SDS011;13225;47.804;12.116;2023-06-10T06:20:01;8.95;;;6.63;;
25279;SDS011;13225;47.804;12.116;2023-06-10T06:22:27;8.25;;;6.50;;
25279;SDS011;13225;47.804;12.116;2023-06-10T06:24:53;8.63;;;6.43;;
25279;SDS011;13225;47.804;12.116;2023-06-10T06:27:18;8.85;;;6.30;;
25279;SDS011;13225;47.804;12.116;2023-06-10T06:29:44;7.47;;;6.28;;
25279;SDS011;13225;47.804;12.116;2023-06-10T06:32:10;7.57;;;6.30;;
25279;SDS011;13225;47.804;12.116;2023-06-10T06:34:35;8.45;;;6.40;;
25279;SDS011;13225;47.804;12.116;2023-06-10T06:37:01;9.10;;;6.75;;
25279;SDS011;13225;47.804;12.116;2023-06-10T06:39:26;8.60;;;7.10;;
25279;SDS011;13225;47.804;12.116;2023-06-10T06:41:53;11.98;;;7.35;;
25279;SDS011;13225;47.804;12.116;2023-06-10T06:44:18;8.23;;;6.75;;
25279;SDS011;13225;47.804;12.116;2023-06-10T06:46:44;8.90;;;6.93;;
25279;SDS011;13225;47.804;12.116;2023-06-10T06:49:10;12.65;;;7.03;;
25279;SDS011;13225;47.804;12.116;2023-06-10T06:51:35;8.73;;;6.78;;
25279;SDS011;13225;47.804;12.116;2023-06-10T06:54:02;8.20;;;6.88;;
25279;SDS011;13225;47.804;12.116;2023-06-10T06:56:27;8.63;;;7.65;;
25279;SDS011;13225;47.804;12.116;2023-06-10T06:58:53;9.90;;;7.60;;
25279;SDS011;13225;47.804;12.116;2023-06-10T07:01:19;10.07;;;7.80;;
25279;SDS011;13225;47.804;12.116;2023-06-10T07:03:45;9.23;;;7.40;;
25279;SDS011;13225;47.804;12.116;2023-06-10T07:06:12;9.20;;;7.50;;
25279;SDS011;13225;47.804;12.116;2023-06-10T07:08:38;9.13;;;7.13;;
25279;SDS011;13225;47.804;12.116;2023-06-10T07:11:03;9.63;;;7.65;;
25279;SDS011;13225;47.804;12.116;2023-06-10T07:13:29;9.68;;;7.97;;
25279;SDS011;13225;47.804;12.116;2023-06-10T07:15:55;9.27;;;7.97;;
25279;SDS011;13225;47.804;12.116;2023-06-10T07:18:20;11.85;;;8.85;;
25279;SDS011;13225;47.804;12.116;2023-06-10T07:20:46;10.80;;;8.52;;
25279;SDS011;13225;47.804;12.116;2023-06-10T07:23:11;11.95;;;8.55;;
25279;SDS011;13225;47.804;12.116;2023-06-10T07:25:37;11.52;;;8.77;;
25279;SDS011;13225;47.804;12.116;2023-06-10T07:28:02;12.60;;;8.95;;
25279;SDS011;13225;47.804;12.116;2023-06-10T07:30:28;11.07;;;9.05;;
25279;SDS011;13225;47.804;12.116;2023-06-10T07:32:54;11.38;;;8.95;;
25279;SDS011;13225;47.804;12.116;2023-06-10T07:35:20;12.13;;;8.75;;
25279;SDS011;13225;47.804;12.116;2023-06-10T07:37:46;13.20;;;8.18;;
25279;SDS011;13225;47.804;12.116;2023-06-10T07:40:12;11.70;;;9.50;;
25279;SDS011;13225;47.804;12.116;2023-06-10T07:42:37;13.40;;;9.13;;
25279;SDS011;13225;47.804;12.116;2023-06-10T07:45:03;10.95;;;8.82;;
25279;SDS011;13225;47.804;12.116;2023-06-10T07:47:30;9.82;;;8.30;;
25279;SDS011;13225;47.804;12.116;2023-06-10T07:49:58;11.15;;;9.00;;
25279;SDS011;13225;47.804;12.116;2023-06-10T07:52:24;11.55;;;9.07;;
25279;SDS011;13225;47.804;12.116;2023-06-10T07:54:50;11.43;;;8.80;;
25279;SDS011;13225;47.804;12.116;2023-06-10T07:57:16;10.95;;;8.88;;
25279;SDS011;13225;47.804;12.116;2023-06-10T07:59:42;12.43;;;9.40;;
25279;SDS011;13225;47.804;12.116;2023-06-10T08:02:09;11.57;;;9.60;;
25279;SDS011;13225;47.804;12.116;2023-06-10T08:04:35;12.02;;;9.30;;
25279;SDS011;13225;47.804;12.116;2023-06-10T08:07:00;11.63;;;9.35;;
25279;SDS011;13225;47.804;12.116;2023-06-10T08:09:27;11.85;;;9.77;;
25279;SDS011;13225;47.804;12.116;2023-06-10T08:11:53;12.23;;;9.23;;
25279;SDS011;13225;47.804;12.116;2023-06-10T08:14:18;12.38;;;9.20;;
25279;SDS011;13225;47.804;12.116;2023-06-10T08:16:44;13.15;;;9.43;;
25279;SDS011;13225;47.804;12.116;2023-06-10T08:19:10;13.50;;;10.00;;
25279;SDS011;13225;47.804;12.116;2023-06-10T08:21:36;12.05;;;9.52;;
25279;SDS011;13225;47.804;12.116;2023-06-10T08:24:02;12.55;;;9.65;;
25279;SDS011;13225;47.804;12.116;2023-06-10T08:26:28;14.38;;;10.32;;
25279;SDS011;13225;47.804;12.116;2023-06-10T08:28:53;11.93;;;9.93;;
25279;SDS011;13225;47.804;12.116;2023-06-10T08:31:20;12.05;;;9.40;;
25279;SDS011;13225;47.804;12.116;2023-06-10T08:33:46;12.52;;;10.13;;
25279;SDS011;13225;47.804;12.116;2023-06-10T08:36:11;12.82;;;9.50;;
25279;SDS011;13225;47.804;12.116;2023-06-10T08:38:37;13.07;;;10.05;;
25279;SDS011;13225;47.804;12.116;2023-06-10T08:41:04;12.82;;;9.50;;
25279;SDS011;13225;47.804;12.116;2023-06-10T08:43:45;14.50;;;10.38;;
25279;SDS011;13225;47.804;12.116;2023-06-10T08:46:31;12.52;;;9.88;;
25279;SDS011;13225;47.804;12.116;2023-06-10T08:48:58;13.00;;;10.15;;
25279;SDS011;13225;47.804;12.116;2023-06-10T08:51:28;11.50;;;9.52;;
25279;SDS011;13225;47.804;12.116;2023-06-10T08:54:04;12.00;;;8.88;;
25279;SDS011;13225;47.804;12.116;2023-06-10T08:56:37;15.48;;;9.98;;
25279;SDS011;13225;47.804;12.116;2023-06-10T08:59:05;12.45;;;10.20;;
25279;SDS011;13225;47.804;12.116;2023-06-10T09:01:31;10.57;;;8.98;;
25279;SDS011;13225;47.804;12.116;2023-06-10T09:03:57;10.48;;;9.07;;
25279;SDS011;13225;47.804;12.116;2023-06-10T09:06:24;11.73;;;9.55;;
25279;SDS011;13225;47.804;12.116;2023-06-10T09:08:50;12.20;;;10.25;;
25279;SDS011;13225;47.804;12.116;2023-06-10T09:11:17;10.65;;;8.93;;
25279;SDS011;13225;47.804;12.116;2023-06-10T09:13:42;10.32;;;8.95;;
25279;SDS011;13225;47.804;12.116;2023-06-10T09:16:08;14.18;;;10.30;;
25279;SDS011;13225;47.804;12.116;2023-06-10T09:18:36;9.63;;;8.07;;
25279;SDS011;13225;47.804;12.116;2023-06-10T09:21:02;10.50;;;8.85;;
25279;SDS011;13225;47.804;12.116;2023-06-10T09:23:28;9.90;;;7.15;;
25279;SDS011;13225;47.804;12.116;2023-06-10T09:25:57;10.32;;;8.13;;
25279;SDS011;13225;47.804;12.116;2023-06-10T09:28:23;9.10;;;7.65;;
25279;SDS011;13225;47.804;12.116;2023-06-10T09:30:49;9.88;;;7.68;;
25279;SDS011;13225;47.804;12.116;2023-06-10T09:33:15;7.57;;;6.35;;
25279;SDS011;13225;47.804;12.116;2023-06-10T09:35:47;7.40;;;6.60;;
25279;SDS011;13225;47.804;12.116;2023-06-10T09:38:15;8.57;;;6.53;;
25279;SDS011;13225;47.804;12.116;2023-06-10T09:40:52;7.82;;;6.03;;
25279;SDS011;13225;47.804;12.116;2023-06-10T09:43:19;7.97;;;6.53;;
25279;SDS011;13225;47.804;12.116;2023-06-10T09:45:47;7.70;;;6.93;;
25279;SDS011;13225;47.804;12.116;2023-06-10T09:48:19;9.15;;;6.45;;
25279;SDS011;13225;47.804;12.116;2023-06-10T09:50:45;7.63;;;6.07;;
25279;SDS011;13225;47.804;12.116;2023-06-10T09:53:11;7.65;;;6.28;;
25279;SDS011;13225;47.804;12.116;2023-06-10T09:55:37;7.15;;;6.20;;
25279;SDS011;13225;47.804;12.116;2023-06-10T09:58:04;5.38;;;4.53;;
25279;SDS011;13225;47.804;12.116;2023-06-10T10:00:31;6.88;;;5.63;;
25279;SDS011;13225;47.804;12.116;2023-06-10T10:02:58;5.78;;;5.03;;
25279;SDS011;13225;47.804;12.116;2023-06-10T10:05:24;6.15;;;5.20;;
25279;SDS011;13225;47.804;12.116;2023-06-10T10:07:50;6.20;;;5.13;;
25279;SDS011;13225;47.804;12.116;2023-06-10T10:10:17;5.55;;;4.95;;
25279;SDS011;13225;47.804;12.116;2023-06-10T10:12:45;5.18;;;4.68;;
25279;SDS011;13225;47.804;12.116;2023-06-10T10:15:13;5.72;;;5.03;;
25279;SDS011;13225;47.804;12.116;2023-06-10T10:18:05;11.85;;;6.57;;
25279;SDS011;13225;47.804;12.116;2023-06-10T10:20:43;9.10;;;6.20;;
25279;SDS011;13225;47.804;12.116;2023-06-10T10:23:12;7.15;;;6.20;;
25279;SDS011;13225;47.804;12.116;2023-06-10T10:25:43;6.82;;;6.10;;
25279;SDS011;13225;47.804;12.116;2023-06-10T10:28:12;7.47;;;5.82;;
25279;SDS011;13225;47.804;12.116;2023-06-10T10:30:46;8.65;;;5.50;;
25279;SDS011;13225;47.804;12.116;2023-06-10T10:33:27;7.38;;;5.05;;
25279;SDS011;13225;47.804;12.116;2023-06-10T10:36:13;6.43;;;5.63;;
25279;SDS011;13225;47.804;12.116;2023-06-10T10:38:40;6.70;;;5.07;;
25279;SDS011;13225;47.804;12.116;2023-06-10T10:41:06;7.05;;;5.45;;
25279;SDS011;13225;47.804;12.116;2023-06-10T10:43:33;6.50;;;5.35;;
25279;SDS011;13225;47.804;12.116;2023-06-10T10:46:12;6.80;;;5.35;;
25279;SDS011;13225;47.804;12.116;2023-06-10T10:48:39;6.53;;;5.50;;
25279;SDS011;13225;47.804;12.116;2023-06-10T10:51:08;7.93;;;4.75;;
25279;SDS011;13225;47.804;12.116;2023-06-10T10:53:34;7.28;;;6.10;;
25279;SDS011;13225;47.804;12.116;2023-06-10T10:58:30;5.57;;;4.53;;
25279;SDS011;13225;47.804;12.116;2023-06-10T11:00:57;5.50;;;4.93;;
25279;SDS011;13225;47.804;12.116;2023-06-10T11:03:24;6.32;;;5.32;;
25279;SDS011;13225;47.804;12.116;2023-06-10T11:05:56;5.32;;;4.78;;
25279;SDS011;13225;47.804;12.116;2023-06-10T11:10:54;6.82;;;4.90;;
25279;SDS011;13225;47.804;12.116;2023-06-10T11:13:20;5.93;;;5.07;;
25279;SDS011;13225;47.804;12.116;2023-06-10T11:15:47;6.53;;;5.70;;
25279;SDS011;13225;47.804;12.116;2023-06-10T11:31:28;6.25;;;5.57;;
25279;SDS011;13225;47.804;12.116;2023-06-10T11:33:58;6.35;;;5.50;;
25279;SDS011;13225;47.804;12.116;2023-06-10T11:36:28;6.40;;;5.30;;
25279;SDS011;13225;47.804;12.116;2023-06-10T11:41:24;6.82;;;5.47;;
25279;SDS011;13225;47.804;12.116;2023-06-10T11:43:51;6.68;;;5.20;;
25279;SDS011;13225;47.804;12.116;2023-06-10T11:46:17;6.07;;;5.30;;
25279;SDS011;13225;47.804;12.116;2023-06-10T11:48:51;5.70;;;5.13;;
25279;SDS011;13225;47.804;12.116;2023-06-10T11:51:18;6.68;;;5.18;;
25279;SDS011;13225;47.804;12.116;2023-06-10T11:53:44;5.05;;;4.40;;
25279;SDS011;13225;47.804;12.116;2023-06-10T11:56:10;4.15;;;3.58;;
25279;SDS011;13225;47.804;12.116;2023-06-10T11:58:36;4.45;;;4.03;;
25279;SDS011;13225;47.804;12.116;2023-06-10T12:01:01;3.55;;;2.83;;
25279;SDS011;13225;47.804;12.116;2023-06-10T12:03:35;3.97;;;3.60;;
25279;SDS011;13225;47.804;12.116;2023-06-10T12:06:03;3.90;;;3.10;;
25279;SDS011;13225;47.804;12.116;2023-06-10T12:08:31;4.10;;;3.70;;
25279;SDS011;13225;47.804;12.116;2023-06-10T12:10:57;4.03;;;3.47;;
25279;SDS011;13225;47.804;12.116;2023-06-10T12:13:25;4.32;;;3.55;;
25279;SDS011;13225;47.804;12.116;2023-06-10T12:15:52;3.83;;;3.20;;
25279;SDS011;13225;47.804;12.116;2023-06-10T12:18:18;4.25;;;3.10;;
25279;SDS011;13225;47.804;12.116;2023-06-10T12:20:45;3.47;;;3.17;;
25279;SDS011;13225;47.804;12.116;2023-06-10T12:23:11;3.75;;;3.38;;
25279;SDS011;13225;47.804;12.116;2023-06-10T12:25:38;3.67;;;3.38;;
25279;SDS011;13225;47.804;12.116;2023-06-10T12:28:05;3.95;;;3.33;;
25279;SDS011;13225;47.804;12.116;2023-06-10T12:30:31;3.40;;;3.10;;
25279;SDS011;13225;47.804;12.116;2023-06-10T12:32:57;4.00;;;3.60;;
25279;SDS011;13225;47.804;12.116;2023-06-10T12:35:24;4.30;;;3.90;;
25279;SDS011;13225;47.804;12.116;2023-06-10T12:37:58;5.93;;;4.28;;
25279;SDS011;13225;47.804;12.116;2023-06-10T12:40:29;5.22;;;3.85;;
25279;SDS011;13225;47.804;12.116;2023-06-10T12:42:56;6.05;;;4.32;;
25279;SDS011;13225;47.804;12.116;2023-06-10T12:45:26;3.70;;;3.38;;
25279;SDS011;13225;47.804;12.116;2023-06-10T12:48:09;4.72;;;4.20;;
25279;SDS011;13225;47.804;12.116;2023-06-10T12:50:50;5.90;;;5.13;;
25279;SDS011;13225;47.804;12.116;2023-06-10T12:53:17;7.35;;;3.83;;
25279;SDS011;13225;47.804;12.116;2023-06-10T12:55:43;5.95;;;4.72;;
25279;SDS011;13225;47.804;12.116;2023-06-10T12:58:10;6.53;;;5.35;;
25279;SDS011;13225;47.804;12.116;2023-06-10T13:00:36;6.05;;;5.00;;
25279;SDS011;13225;47.804;12.116;2023-06-10T13:03:03;7.80;;;4.70;;
25279;SDS011;13225;47.804;12.116;2023-06-10T13:05:30;5.65;;;5.05;;
25279;SDS011;13225;47.804;12.116;2023-06-10T13:07:57;4.90;;;4.40;;
25279;SDS011;13225;47.804;12.116;2023-06-10T13:10:23;4.35;;;3.95;;
25279;SDS011;13225;47.804;12.116;2023-06-10T13:12:49;4.40;;;3.90;;
25279;SDS011;13225;47.804;12.116;2023-06-10T13:15:15;6.07;;;5.10;;
25279;SDS011;13225;47.804;12.116;2023-06-10T13:17:44;6.85;;;5.15;;
25279;SDS011;13225;47.804;12.116;2023-06-10T13:20:14;5.57;;;5.07;;
25279;SDS011;13225;47.804;12.116;2023-06-10T13:22:40;5.13;;;4.63;;
25279;SDS011;13225;47.804;12.116;2023-06-10T13:25:05;6.13;;;4.78;;
25279;SDS011;13225;47.804;12.116;2023-06-10T13:27:32;5.10;;;4.60;;
25279;SDS011;13225;47.804;12.116;2023-06-10T13:29:58;7.53;;;4.82;;
25279;SDS011;13225;47.804;12.116;2023-06-10T13:32:24;4.78;;;4.28;;
25279;SDS011;13225;47.804;12.116;2023-06-10T13:34:50;5.43;;;4.53;;
25279;SDS011;13225;47.804;12.116;2023-06-10T13:37:16;4.97;;;4.47;;
25279;SDS011;13225;47.804;12.116;2023-06-10T13:39:45;5.15;;;4.65;;
25279;SDS011;13225;47.804;12.116;2023-06-10T13:42:15;5.20;;;4.18;;
25279;SDS011;13225;47.804;12.116;2023-06-10T13:44:42;4.65;;;4.20;;
25279;SDS011;13225;47.804;12.116;2023-06-10T13:47:07;5.40;;;4.43;;
25279;SDS011;13225;47.804;12.116;2023-06-10T13:49:33;4.65;;;4.13;;
25279;SDS011;13225;47.804;12.116;2023-06-10T13:51:59;5.45;;;4.55;;
25279;SDS011;13225;47.804;12.116;2023-06-10T13:54:24;5.03;;;4.30;;
25279;SDS011;13225;47.804;12.116;2023-06-10T13:56:50;4.35;;;3.95;;
25279;SDS011;13225;47.804;12.116;2023-06-10T13:59:15;4.80;;;4.25;;
25279;SDS011;13225;47.804;12.116;2023-06-10T14:01:41;4.53;;;4.00;;
25279;SDS011;13225;47.804;12.116;2023-06-10T14:04:07;4.28;;;3.88;;
25279;SDS011;13225;47.804;12.116;2023-06-10T14:06:33;6.15;;;3.92;;
25279;SDS011;13225;47.804;12.116;2023-06-10T14:09:01;4.30;;;3.90;;
25279;SDS011;13225;47.804;12.116;2023-06-10T14:11:27;4.32;;;3.92;;
25279;SDS011;13225;47.804;12.116;2023-06-10T14:13:53;6.07;;;4.15;;
25279;SDS011;13225;47.804;12.116;2023-06-10T14:16:21;5.88;;;3.58;;
25279;SDS011;13225;47.804;12.116;2023-06-10T14:18:46;4.40;;;4.00;;
25279;SDS011;13225;47.804;12.116;2023-06-10T14:21:12;3.97;;;3.58;;
25279;SDS011;13225;47.804;12.116;2023-06-10T14:23:38;4.32;;;3.65;;
25279;SDS011;13225;47.804;12.116;2023-06-10T14:26:03;4.20;;;3.80;;
25279;SDS011;13225;47.804;12.116;2023-06-10T14:28:31;3.88;;;3.58;;
25279;SDS011;13225;47.804;12.116;2023-06-10T14:30:56;4.07;;;3.75;;
25279;SDS011;13225;47.804;12.116;2023-06-10T14:33:22;5.47;;;3.50;;
25279;SDS011;13225;47.804;12.116;2023-06-10T14:35:48;4.18;;;3.80;;
25279;SDS011;13225;47.804;12.116;2023-06-10T14:38:14;4.63;;;4.05;;
25279;SDS011;13225;47.804;12.116;2023-06-10T14:40:40;4.20;;;3.80;;
25279;SDS011;13225;47.804;12.116;2023-06-10T14:43:05;4.97;;;3.58;;
25279;SDS011;13225;47.804;12.116;2023-06-10T14:45:38;4.20;;;3.45;;
25279;SDS011;13225;47.804;12.116;2023-06-10T14:48:05;4.18;;;3.50;;
25279;SDS011;13225;47.804;12.116;2023-06-10T14:50:32;4.25;;;3.70;;